World of Logs combat log analyzer allows gamers to save, share and analyze their raiding experiences conveniently and thoroughly in the Blizzard MMO World of Warcraft. If you're new here, make sure you check out the tour for a 1 minute introduction. If you have any questions, we're happy to answer them on the forums.

DPS HPS
Odyn
Helya
Guarm
Reports for Shadron - statistics
# Date Time Damage DPS Guild Realm
1 23 Mar 2010 00:20 0.63M 31286.8 Magical US-Caelestrasz
2 10 Mar 2011 00:20 0.99M 49394.6 Aequitas Deis US-Proudmoore
3 08 Apr 2010 00:20 0.51M 25309.1 Flashoflight's Raids US-Thrall
4 15 May 2010 00:20 0.60M 29729.4 The Wyld Hunt EU-Argent Dawn
5 15 May 2010 00:20 0.60M 29729.4 The Wyld Hunt EU-Argent Dawn
6 03 Apr 2010 00:20 0.38M 18911.8 Aperture US-Grizzly Hills
7 16 Feb 2012 00:20 0.33M 16487.1 Nachtsturm EU-Zirkel des Cenarius
8 16 Feb 2010 00:20 0.70M 34609.6 Repulse EU-Alexstrasza
9 20 Mar 2011 00:20 0.51M 25227.7 Логи дяди Дили EU-Ревущий фьорд
10 26 Feb 2010 00:20 0.60M 29165.1 Hidden US-Arthas
11 06 Jan 2010 00:20 0.60M 28744.1 Wicked Souls US-Norgannon
12 08 Jun 2010 00:20 0.85M 40723.0 Edge of Insanity US-Bloodhoof
13 23 Apr 2012 00:20 0.99M 47259.8 Progression US-Silvermoon
14 06 Jan 2010 00:20 0.99M 47277.2 Insidious US-Cenarius
15 20 Mar 2010 00:21 0.63M 29689.7 Crusaders of Thanatos US-Dalaran
16 07 Jan 2010 00:21 0.63M 29735.6 Die Trashmobs EU-Alleria
17 24 Apr 2010 00:21 0.86M 39671.5 Те самые EU-Вечная Песня
18 17 Nov 2009 00:21 0.24M 11149.4 Dragon Raiders Xtreme US-Shu'halo
19 20 Oct 2009 00:21 0.29M 13178.9 Twìlíght US-Alexstrasza
20 14 Feb 2010 00:22 0.66M 29348.2 Resonance US-Trollbane
21 12 Apr 2010 00:22 0.55M 24462.7 Lokis Erben EU-Perenolde
22 17 Mar 2010 00:22 0.71M 31302.3 Trained Monkeys EU-Shadowsong
23 26 Jan 2010 00:22 0.98M 43211.3 Bird is the Word EU-Frostwhisper
24 20 Mar 2010 00:22 0.65M 28495.7 Enthusiasm EU-Darkmoon Faire
25 21 Jun 2009 00:22 0.36M 15888.1 Next Try EU-Blackhand
26 20 Feb 2010 00:22 0.71M 30792.5 Unic EU-Gorgonnash
27 28 Jan 2011 00:22 0.40M 17417.7 Ilia Fêon EU-Malygos
28 17 Jan 2010 00:22 0.33M 14559.9 Retribution US-Earthen Ring
29 23 Mar 2012 00:23 0.90M 38573.4 Rock Lobster US-Azralon
30 12 Sep 2009 00:23 0.62M 26553.5 Treehugging Hippies EU-Runetotem
31 30 Mar 2010 00:23 0.88M 37632.3 Aulm01temp EU-Aegwynn
32 29 Dec 2009 00:23 0.34M 14578.5 Red Shadows US-Llane
33 22 Feb 2010 00:23 0.63M 26596.1 Forged Alliance US-Destromath
34 17 Dec 2009 00:23 0.70M 29658.8 Eternal Gathering EU-Doomhammer
35 27 Nov 2010 00:23 0.71M 29937.0 Schwarzer Wind EU-Die ewige Wacht
36 09 Mar 2010 00:23 0.58M 24390.6 Sanktum EU-Mannoroth
37 01 Feb 2010 00:23 1.36M 57330.1 Тени EU-Вечная Песня
38 22 Dec 2009 00:23 0.57M 24071.9 Seventh Crusade EU-Bloodscalp
39 30 Jan 2010 00:24 0.60M 24884.9 Misanthropes US-Hyjal
40 29 Jan 2010 00:24 0.67M 27732.9 SarGuild US-Frostmourne
41 03 Mar 2010 00:24 0.41M 16996.3 Wir sind Helden EU-Mal'Ganis
42 15 Mar 2011 00:24 0.25M 10267.8 Hijos de Azeroth EU-Dalaran
43 13 Jan 2010 00:24 0.71M 28867.5 Incurro Noctis US-Dalvengyr
44 11 Jan 2010 00:24 0.72M 29495.5 La confrérie de la loose EU-Sargeras
45 07 Mar 2010 00:24 0.72M 29211.9 DnD EU-Les Sentinelles
46 27 May 2010 00:24 0.82M 33011.9 Novus Arma Noctum US-Stormrage
47 26 Feb 2010 00:24 0.67M 27116.4 Dragonlords US-Elune
48 15 Mar 2010 00:24 0.60M 24008.0 Aegis US-Llane
49 13 Sep 2009 00:24 0.65M 26232.1 Eidolon US-Proudmoore
50 08 Apr 2010 00:25 0.64M 25542.4 Impact EU-Drak'thul
51 25 Nov 2011 00:25 0.98M 38986.9 Hellguards EU-Aerie Peak
52 07 Dec 2011 00:25 0.98M 38946.6 Laurex US-Norgannon
53 27 Jan 2010 00:25 0.60M 23831.5 Reborn US-Khaz Modan
54 16 Apr 2011 00:25 0.46M 18044.4 Aurora's Adventures! EU-Aggramar
55 23 Feb 2010 00:25 0.84M 32864.9 Irmandade do Caos US-Gurubashi
56 25 Jan 2010 00:25 0.69M 27007.4 Lokis Erben EU-Perenolde
57 13 Nov 2009 00:25 0.65M 25378.9 Six Minutes To Release US-Lightbringer
58 14 Apr 2010 00:25 1.76M 68323.3 RoadRunners US-Kil'jaeden
59 12 Feb 2010 00:26 0.80M 30412.1 Quintessence EU-Hyjal
60 19 Feb 2010 00:26 0.76M 28954.3 planB EU-Sen'jin
61 16 Sep 2009 00:26 0.81M 30224.5 Hardcore Casuals US-Ysera
62 21 Mar 2011 00:26 0.73M 27353.8 One Winged Ninja's EU-Aggramar
63 16 Aug 2009 00:26 0.67M 25109.0 Highland Warriors EU-Thunderhorn
64 20 Jan 2010 00:26 0.78M 29206.3 Running with Daggers US-Rexxar
65 16 Oct 2009 00:26 0.65M 24313.8 Six Minutes To Release US-Lightbringer
66 10 Feb 2010 00:27 0.75M 27739.6 ITargetables US-Uldaman
67 16 Jan 2010 00:27 0.61M 22650.8 Cryptic US-Nagrand
68 11 Jul 2010 00:27 0.88M 32175.3 Wen-Tzu Enclave EU-Bloodscalp
69 09 Feb 2010 00:27 0.69M 25430.5 Casually Serious EU-Area 52
70 13 Apr 2012 00:27 1.89M 68307.9 Nachtsturm EU-Zirkel des Cenarius
71 31 Aug 2011 00:27 1.08M 38737.5 Laurex US-Norgannon
72 03 Jun 2012 00:27 0.53M 19172.6 Nauthiz EU-Die Aldor
73 18 Sep 2009 00:27 0.68M 24323.9 Quality US-Argent Dawn
74 22 Jan 2010 00:28 1.72M 61093.3 Darns US-Malfurion
75 19 Dec 2011 00:28 1.08M 38488.6 Laurex US-Norgannon
76 27 Jan 2010 00:28 1.98M 69369.3 Pwner of a Lonely Heart US-Black Dragonflight
77 03 Jan 2010 00:28 1.52M 53002.4 Nothing Special US-Zuluhed
78 20 Jan 2010 00:28 1.91M 65883.0 Exhumed EU-Shadowsong
79 24 Dec 2009 00:29 0.70M 23988.3 Adrenaline EU-Sylvanas
80 04 Mar 2010 00:29 0.74M 25529.1 Empires US-Darrowmere
81 17 Feb 2010 00:29 1.10M 37434.0 Grateful Dead US-Kargath
82 23 Jun 2012 00:29 1.17M 39483.5 Орден вечной песни EU-Вечная Песня
83 31 May 2010 00:29 0.29M 9666.8 Yasashii Heavy Industries US-Trollbane
84 18 Nov 2011 00:29 0.98M 32913.1 Hijos de Azeroth EU-Dalaran
85 06 Feb 2010 00:29 0.88M 29471.2 Steel Alliance EU-Darksorrow
86 20 Mar 2010 00:29 0.69M 23176.4 Daughters of the Horde US-Bronzebeard
87 14 Jan 2010 00:30 0.76M 25151.0 Tanooki Suit US-Sisters of Elune
88 19 Mar 2010 00:30 0.89M 29520.4 HA EU-Dalvengyr
89 16 Apr 2010 00:30 0.86M 28704.1 Ibex US-Darkspear
90 09 Jan 2010 00:30 0.64M 21126.3 Fighting Mongooses EU-Emerald Dream
91 07 Nov 2009 00:30 0.71M 23593.3 Red Shadows US-Llane
92 08 Jul 2010 00:30 0.69M 22794.2 Ereniel EU-Gilneas
93 03 Apr 2010 00:30 0.69M 22554.6 Enthusiasm EU-Darkmoon Faire
94 14 Mar 2010 00:30 0.86M 28260.3 The Risen US-Thorium Brotherhood
95 27 Jun 2009 00:30 0.59M 19356.8 Legio Fidelis US-Scarlet Crusade
96 03 Nov 2011 00:30 0.64M 21031.6 Laurex US-Norgannon
97 26 Mar 2010 00:30 0.46M 14908.8 Kalabalik EU-Shadowsong
98 02 Oct 2009 00:30 0.65M 21230.4 Order Of Hope EU-Stormrage
99 15 Apr 2010 00:30 1.28M 41872.1 Mistwalkers US-Sisters of Elune
100 28 Mar 2011 00:30 0.46M 15006.8 Warbound US-Proudmoore

Please do not close the page with the ad you want to report.

I've posted a guide on how to report misbehaving ads on the forum. Please follow the instructions and help make the internet a safer place. Thanks for you time.